createdAt,value
2022-08-26T00:00:32.851Z,0.00
2022-08-26T00:01:32.830Z,0.00
2022-08-26T00:02:32.998Z,0.00
2022-08-26T00:03:32.782Z,0.00
2022-08-26T00:04:33.813Z,0.00
2022-08-26T00:05:32.775Z,0.00
2022-08-26T00:06:32.741Z,0.00
2022-08-26T00:07:32.743Z,0.00
2022-08-26T00:08:32.713Z,0.00
2022-08-26T00:09:32.736Z,0.00
2022-08-26T00:10:32.704Z,0.00
2022-08-26T00:11:32.673Z,0.00
2022-08-26T00:12:37.584Z,0.00
2022-08-26T00:13:33.636Z,0.00
2022-08-26T00:14:32.681Z,0.00
2022-08-26T00:15:32.595Z,0.00
2022-08-26T00:16:32.710Z,0.00
2022-08-26T00:17:32.564Z,0.00
2022-08-26T00:18:38.849Z,0.00
2022-08-26T00:19:33.577Z,0.00
2022-08-26T00:20:32.521Z,0.00
2022-08-26T00:21:32.530Z,0.00
2022-08-26T00:22:32.490Z,0.00
2022-08-26T00:23:32.474Z,0.00
2022-08-26T00:24:32.496Z,0.00
2022-08-26T00:25:32.449Z,0.00
2022-08-26T00:26:32.417Z,0.00
2022-08-26T00:27:32.410Z,0.00
2022-08-26T00:28:32.380Z,0.00
2022-08-26T00:29:32.401Z,0.00
2022-08-26T00:30:33.353Z,0.00
2022-08-26T00:32:04.783Z,0.00
2022-08-26T00:32:32.323Z,0.00
2022-08-26T00:33:32.308Z,0.00
2022-08-26T00:34:32.313Z,0.00
2022-08-26T00:35:32.270Z,0.00
2022-08-26T00:36:32.260Z,0.00
2022-08-26T00:37:32.244Z,0.00
2022-08-26T00:38:32.219Z,0.00
2022-08-26T00:39:32.245Z,0.00
2022-08-26T00:40:32.244Z,0.00
2022-08-26T00:41:32.170Z,0.00
2022-08-26T00:42:32.161Z,0.00
2022-08-26T00:43:32.137Z,0.00
2022-08-26T00:44:33.167Z,0.00
2022-08-26T00:45:32.139Z,0.00
2022-08-26T00:46:32.091Z,0.00
2022-08-26T00:47:32.080Z,0.00
2022-08-26T00:48:32.066Z,0.00
2022-08-26T00:49:32.114Z,0.00
2022-08-26T00:50:32.022Z,0.00
2022-08-26T00:51:32.016Z,0.00
2022-08-26T00:52:31.993Z,0.00
2022-08-26T00:53:31.992Z,0.00
2022-08-26T00:54:31.956Z,0.00
2022-08-26T00:55:37.737Z,0.00
2022-08-26T00:56:32.974Z,0.00
2022-08-26T00:57:31.934Z,0.00
2022-08-26T00:58:31.895Z,0.00
2022-08-26T00:59:32.732Z,0.00
2022-08-26T01:00:31.894Z,0.00
2022-08-26T01:01:31.939Z,0.00
2022-08-26T01:02:31.860Z,0.00
2022-08-26T01:03:31.813Z,0.00
2022-08-26T01:04:31.810Z,0.00
2022-08-26T01:05:31.827Z,0.00
2022-08-26T01:06:31.788Z,0.00
2022-08-26T01:07:31.744Z,0.00
2022-08-26T01:08:31.734Z,0.00
2022-08-26T01:09:31.703Z,0.00
2022-08-26T01:10:31.735Z,0.00
2022-08-26T01:11:31.671Z,0.00
2022-08-26T01:12:31.663Z,0.00
2022-08-26T01:13:31.641Z,0.00
2022-08-26T01:14:31.627Z,0.00
2022-08-26T01:15:32.958Z,0.00
2022-08-26T01:16:31.701Z,0.00
2022-08-26T01:17:31.594Z,0.00
2022-08-26T01:18:31.571Z,0.00
2022-08-26T01:19:31.557Z,0.00
2022-08-26T01:20:31.571Z,0.00
2022-08-26T01:21:31.520Z,0.00
2022-08-26T01:22:31.510Z,0.00
2022-08-26T01:23:31.475Z,0.00
2022-08-26T01:24:31.461Z,0.00
2022-08-26T01:25:31.496Z,0.00
2022-08-26T01:26:31.449Z,0.00
2022-08-26T01:27:32.684Z,0.00
2022-08-26T01:28:31.409Z,0.00
2022-08-26T01:29:31.387Z,0.00
2022-08-26T01:30:31.402Z,0.00
2022-08-26T01:31:31.412Z,0.00
2022-08-26T01:32:31.345Z,0.00
2022-08-26T01:33:31.319Z,0.00
2022-08-26T01:34:32.305Z,0.00
2022-08-26T01:35:31.387Z,0.00
2022-08-26T01:36:31.298Z,0.00
2022-08-26T01:37:31.258Z,0.00
2022-08-26T01:38:31.652Z,0.00
2022-08-26T01:39:31.235Z,0.00
2022-08-26T01:40:31.278Z,0.00
2022-08-26T01:41:31.205Z,0.00
2022-08-26T01:42:31.166Z,0.00
2022-08-26T01:43:31.158Z,0.00
2022-08-26T01:44:31.184Z,0.00
2022-08-26T01:45:31.236Z,0.00
2022-08-26T01:46:31.118Z,0.00
2022-08-26T01:47:31.091Z,0.00
2022-08-26T01:48:31.095Z,0.00
2022-08-26T01:49:31.994Z,0.00
2022-08-26T01:50:31.071Z,0.00
2022-08-26T01:51:31.028Z,0.00
2022-08-26T01:52:31.026Z,0.00
2022-08-26T01:53:31.004Z,0.00
2022-08-26T01:54:30.977Z,0.00
2022-08-26T01:55:33.478Z,0.00
2022-08-26T01:56:33.249Z,0.00
2022-08-26T01:57:31.944Z,0.00
2022-08-26T01:58:30.939Z,0.00
2022-08-26T01:59:30.911Z,0.00
2022-08-26T02:00:30.919Z,0.00
2022-08-26T02:01:30.875Z,0.00
2022-08-26T02:02:30.847Z,0.00
2022-08-26T02:03:30.842Z,0.00
2022-08-26T02:04:30.869Z,0.00
2022-08-26T02:05:30.830Z,0.00
2022-08-26T02:06:30.779Z,0.00
2022-08-26T02:07:30.789Z,0.00
2022-08-26T02:08:30.743Z,0.00
2022-08-26T02:09:30.810Z,0.00
2022-08-26T02:10:30.739Z,0.00
2022-08-26T02:11:30.702Z,0.00
2022-08-26T02:12:30.712Z,0.00
2022-08-26T02:13:30.658Z,0.00
2022-08-26T02:14:30.654Z,0.00
2022-08-26T02:15:30.663Z,0.00
2022-08-26T02:16:30.670Z,0.00
2022-08-26T02:17:30.582Z,0.00
2022-08-26T02:18:30.582Z,0.00
2022-08-26T02:19:30.559Z,0.00
2022-08-26T02:20:30.574Z,0.00
2022-08-26T02:21:30.526Z,0.00
2022-08-26T02:22:30.506Z,0.00
2022-08-26T02:23:30.493Z,0.00
2022-08-26T02:24:30.474Z,0.00
2022-08-26T02:25:30.485Z,0.00
2022-08-26T02:26:30.442Z,0.00
2022-08-26T02:27:32.049Z,0.00
2022-08-26T02:28:30.410Z,0.00
2022-08-26T02:29:30.399Z,0.00
2022-08-26T02:30:30.418Z,0.00
2022-08-26T02:31:30.421Z,0.00
2022-08-26T02:32:30.341Z,0.00
2022-08-26T02:33:30.337Z,0.00
2022-08-26T02:34:31.116Z,0.00
2022-08-26T02:35:30.317Z,0.00
2022-08-26T02:36:30.282Z,0.00
2022-08-26T02:37:30.252Z,0.00
2022-08-26T02:38:30.249Z,0.00
2022-08-26T02:39:30.225Z,0.00
2022-08-26T02:40:30.271Z,0.00
2022-08-26T02:41:30.193Z,0.00
2022-08-26T02:42:30.181Z,0.00
2022-08-26T02:43:32.869Z,0.00
2022-08-26T02:44:30.153Z,0.00
2022-08-26T02:45:30.161Z,0.00
2022-08-26T02:46:30.250Z,0.00
2022-08-26T02:47:30.112Z,0.00
2022-08-26T02:48:30.077Z,0.00
2022-08-26T02:49:30.076Z,0.00
2022-08-26T02:50:30.092Z,0.00
2022-08-26T02:51:30.038Z,0.00
2022-08-26T02:52:30.001Z,0.00
2022-08-26T02:53:31.858Z,0.00
2022-08-26T02:54:29.985Z,0.00
2022-08-26T02:55:29.994Z,0.00
2022-08-26T02:56:29.938Z,0.00
2022-08-26T02:57:29.936Z,0.00
2022-08-26T02:58:29.905Z,0.00
2022-08-26T02:59:29.910Z,0.00
2022-08-26T03:00:29.945Z,0.00
2022-08-26T03:01:29.956Z,0.00
2022-08-26T03:02:29.848Z,0.00
2022-08-26T03:03:29.818Z,0.00
2022-08-26T03:04:29.826Z,0.00
2022-08-26T03:05:29.838Z,0.00
2022-08-26T03:06:29.781Z,0.00
2022-08-26T03:07:29.761Z,0.00
2022-08-26T03:08:29.744Z,0.00
2022-08-26T03:09:29.723Z,0.00
2022-08-26T03:10:29.744Z,0.00
2022-08-26T03:11:33.003Z,0.00
2022-08-26T03:12:30.675Z,0.00
2022-08-26T03:13:29.685Z,0.00
2022-08-26T03:14:29.679Z,0.00
2022-08-26T03:15:29.656Z,0.00
2022-08-26T03:16:32.471Z,0.00
2022-08-26T03:17:29.612Z,0.00
2022-08-26T03:18:29.591Z,0.00
2022-08-26T03:19:29.582Z,0.00
2022-08-26T03:20:29.597Z,0.00
2022-08-26T03:21:29.551Z,0.00
2022-08-26T03:22:29.517Z,0.00
2022-08-26T03:23:29.498Z,0.00
2022-08-26T03:24:29.475Z,0.00
2022-08-26T03:25:29.486Z,0.00
2022-08-26T03:26:29.437Z,0.00
2022-08-26T03:27:29.472Z,0.00
2022-08-26T03:28:29.423Z,0.00
2022-08-26T03:29:29.402Z,0.00
2022-08-26T03:30:29.409Z,0.00
2022-08-26T03:31:29.450Z,0.00
2022-08-26T03:32:29.361Z,0.00
2022-08-26T03:33:29.330Z,0.00
2022-08-26T03:34:29.375Z,0.00
2022-08-26T03:35:29.327Z,0.00
2022-08-26T03:36:29.302Z,0.00
2022-08-26T03:37:29.254Z,0.00
2022-08-26T03:38:29.248Z,0.00
2022-08-26T03:39:31.459Z,0.00
2022-08-26T03:40:29.306Z,0.00
2022-08-26T03:41:29.204Z,0.00
2022-08-26T03:42:29.171Z,0.00
2022-08-26T03:43:29.173Z,0.00
2022-08-26T03:44:29.141Z,4.00
2022-08-26T03:45:29.155Z,4.00
2022-08-26T03:46:29.169Z,0.00
2022-08-26T03:47:29.103Z,0.00
2022-08-26T03:48:29.077Z,4.00
2022-08-26T03:49:29.095Z,4.00
2022-08-26T03:50:29.073Z,0.00
2022-08-26T03:51:29.034Z,4.00
2022-08-26T03:52:29.006Z,4.00
2022-08-26T03:53:28.997Z,4.00
2022-08-26T03:54:28.970Z,4.00
2022-08-26T03:55:29.001Z,4.00
2022-08-26T03:56:28.956Z,8.00
2022-08-26T03:57:28.913Z,8.00
2022-08-26T03:58:29.906Z,8.00
2022-08-26T03:59:28.890Z,12.00
2022-08-26T04:00:28.911Z,16.00
2022-08-26T04:01:28.891Z,16.00
2022-08-26T04:02:28.867Z,20.00
2022-08-26T04:03:28.886Z,20.00
2022-08-26T04:04:28.814Z,24.00
2022-08-26T04:05:28.821Z,28.00
2022-08-26T04:06:28.784Z,36.00
2022-08-26T04:07:28.773Z,40.00
2022-08-26T04:08:28.742Z,48.00
2022-08-26T04:09:28.721Z,52.00
2022-08-26T04:10:29.537Z,64.00
2022-08-26T04:11:28.704Z,72.00
2022-08-26T04:12:28.676Z,88.00
2022-08-26T04:13:28.668Z,100.00
2022-08-26T04:14:28.647Z,120.00
2022-08-26T04:15:28.673Z,140.00
2022-08-26T04:16:28.648Z,160.00
2022-08-26T04:17:28.605Z,184.00
2022-08-26T04:18:33.014Z,208.00
2022-08-26T04:19:30.568Z,236.00
2022-08-26T04:20:28.583Z,264.00
2022-08-26T04:21:28.527Z,292.00
2022-08-26T04:22:28.532Z,324.00
2022-08-26T04:23:28.493Z,356.00
2022-08-26T04:24:28.594Z,388.00
2022-08-26T04:25:28.495Z,420.00
2022-08-26T04:26:28.446Z,452.00
2022-08-26T04:27:28.413Z,484.00
2022-08-26T04:28:28.406Z,516.00
2022-08-26T04:29:28.422Z,552.00
2022-08-26T04:30:28.393Z,588.00
2022-08-26T04:31:28.415Z,628.00
2022-08-26T04:32:28.341Z,672.00
2022-08-26T04:33:33.200Z,720.00
2022-08-26T04:34:29.320Z,772.00
2022-08-26T04:35:28.323Z,824.00
2022-08-26T04:36:28.269Z,880.00
2022-08-26T04:37:28.245Z,944.00
2022-08-26T04:38:28.227Z,1016.00
2022-08-26T04:39:28.236Z,1084.00
2022-08-26T04:40:28.268Z,1160.00
2022-08-26T04:41:28.194Z,1240.00
2022-08-26T04:42:28.166Z,1332.00
2022-08-26T04:43:28.162Z,1424.00
2022-08-26T04:44:28.189Z,1524.00
2022-08-26T04:45:28.146Z,1628.00
2022-08-26T04:46:28.146Z,1740.00
2022-08-26T04:47:31.766Z,1852.00
2022-08-26T04:48:29.070Z,1968.00
2022-08-26T04:49:28.050Z,2084.00
2022-08-26T04:50:29.065Z,2208.00
2022-08-26T04:51:28.281Z,2328.00
2022-08-26T04:52:28.044Z,2456.00
2022-08-26T04:53:28.000Z,2584.00
2022-08-26T04:54:27.976Z,2704.00
2022-08-26T04:55:38.220Z,2808.00
2022-08-26T04:56:28.983Z,2900.00
2022-08-26T04:57:27.914Z,2960.00
2022-08-26T04:58:27.896Z,3004.00
2022-08-26T04:59:27.871Z,3036.00
2022-08-26T05:00:27.898Z,3080.00
2022-08-26T05:01:27.871Z,3148.00
2022-08-26T05:02:27.901Z,3196.00
2022-08-26T05:03:30.569Z,3268.00
2022-08-26T05:04:27.860Z,3388.00
2022-08-26T05:05:27.772Z,3400.00
2022-08-26T05:06:27.782Z,3384.00
2022-08-26T05:07:28.747Z,3404.00
2022-08-26T05:08:27.727Z,3452.00
2022-08-26T05:09:27.704Z,3468.00
2022-08-26T05:10:28.712Z,3572.00
2022-08-26T05:11:27.718Z,4180.00
2022-08-26T05:12:27.663Z,5548.00
2022-08-26T05:13:27.707Z,7164.00
2022-08-26T05:14:27.736Z,8688.00
2022-08-26T05:15:27.626Z,9272.00
2022-08-26T05:16:27.739Z,10556.00
2022-08-26T05:17:27.620Z,10876.00
2022-08-26T05:18:27.577Z,11280.00
2022-08-26T05:19:27.955Z,11932.00
2022-08-26T05:20:27.524Z,11072.00
2022-08-26T05:21:27.553Z,9592.00
2022-08-26T05:22:27.516Z,10040.00
2022-08-26T05:23:27.475Z,10164.00
2022-08-26T05:24:27.499Z,8600.00
2022-08-26T05:25:27.523Z,7692.00
2022-08-26T05:26:27.459Z,8808.00
2022-08-26T05:27:27.404Z,15328.00
2022-08-26T05:28:27.435Z,22688.00
2022-08-26T05:29:27.383Z,22656.00
2022-08-26T05:30:27.375Z,20672.00
2022-08-26T05:31:27.426Z,20704.00
2022-08-26T05:32:27.324Z,22528.00
2022-08-26T05:33:27.318Z,21184.00
2022-08-26T05:34:30.245Z,17504.00
2022-08-26T05:35:27.358Z,12412.00
2022-08-26T05:36:27.304Z,11600.00
2022-08-26T05:37:27.256Z,12068.00
2022-08-26T05:38:30.335Z,12892.00
2022-08-26T05:39:27.221Z,16160.00
2022-08-26T05:40:27.283Z,18368.00
2022-08-26T05:41:27.210Z,21024.00
2022-08-26T05:42:28.161Z,26048.00
2022-08-26T05:43:27.197Z,29632.00
2022-08-26T05:44:27.740Z,29728.00
2022-08-26T05:45:27.126Z,22528.00
2022-08-26T05:46:27.327Z,14132.00
2022-08-26T05:47:27.129Z,13312.00
2022-08-26T05:48:27.099Z,23328.00
2022-08-26T05:49:27.090Z,36096.00
2022-08-26T05:50:27.045Z,40224.00
2022-08-26T05:51:27.057Z,39584.00
2022-08-26T05:52:27.001Z,39296.00
2022-08-26T05:53:27.011Z,38656.00
2022-08-26T05:54:27.082Z,38016.00
2022-08-26T05:55:26.992Z,37184.00
2022-08-26T05:56:27.080Z,36640.00
2022-08-26T05:57:26.956Z,35232.00
2022-08-26T05:58:26.903Z,36384.00
2022-08-26T05:59:26.896Z,36640.00
2022-08-26T06:00:26.883Z,35808.00
2022-08-26T06:01:26.948Z,33600.00
2022-08-26T06:02:26.921Z,35520.00
2022-08-26T06:03:26.820Z,37792.00
2022-08-26T06:04:28.319Z,38560.00
2022-08-26T06:05:26.835Z,40928.00
2022-08-26T06:06:27.445Z,42720.00
2022-08-26T06:07:26.755Z,36768.00
2022-08-26T06:08:26.779Z,24416.00
2022-08-26T06:09:26.741Z,17152.00
2022-08-26T06:10:32.471Z,17344.00
2022-08-26T06:11:28.724Z,26272.00
2022-08-26T06:12:26.682Z,42464.00
2022-08-26T06:13:26.692Z,47264.00
2022-08-26T06:14:26.685Z,44448.00
2022-08-26T06:15:26.790Z,44928.00
2022-08-26T06:16:26.704Z,47808.00
2022-08-26T06:17:26.614Z,48960.00
2022-08-26T06:18:26.588Z,50464.00
2022-08-26T06:19:32.962Z,52896.00
2022-08-26T06:20:27.557Z,53824.00
2022-08-26T06:21:26.585Z,52000.00
2022-08-26T06:22:26.537Z,52832.00
2022-08-26T06:23:26.540Z,54016.00
2022-08-26T06:24:27.266Z,55936.00
2022-08-26T06:25:26.504Z,56384.00
2022-08-26T06:26:26.539Z,59168.00
2022-08-26T06:27:30.668Z,60416.00
2022-08-26T06:28:28.434Z,60576.00
2022-08-26T06:29:26.457Z,59488.00
2022-08-26T06:30:26.437Z,61376.00
2022-08-26T06:31:26.446Z,61472.00
2022-08-26T06:32:26.399Z,58528.00
2022-08-26T06:33:26.390Z,38432.00
2022-08-26T06:34:29.667Z,23040.00
2022-08-26T06:35:26.328Z,32608.00
2022-08-26T06:36:26.353Z,52768.00
2022-08-26T06:37:26.300Z,61024.00
2022-08-26T06:38:26.295Z,56640.00
2022-08-26T06:39:26.266Z,52416.00
2022-08-26T06:40:26.405Z,53696.00
2022-08-26T06:41:26.339Z,57120.00
2022-08-26T06:42:26.239Z,60640.00
2022-08-26T06:43:26.208Z,61888.00
2022-08-26T06:44:26.388Z,59328.00
2022-08-26T06:45:26.403Z,60608.00
2022-08-26T06:46:26.261Z,63712.00
2022-08-26T06:47:26.130Z,62560.00
2022-08-26T06:48:26.131Z,61824.00
2022-08-26T06:49:27.353Z,62240.00
2022-08-26T06:50:26.093Z,62976.00
2022-08-26T06:51:26.121Z,64896.00
2022-08-26T06:52:26.084Z,68352.00
2022-08-26T06:53:26.055Z,72640.00
2022-08-26T06:54:26.025Z,72672.00
2022-08-26T06:55:26.877Z,71392.00
2022-08-26T06:56:26.028Z,67776.00
2022-08-26T06:57:25.985Z,66208.00
2022-08-26T06:58:26.924Z,53248.00
2022-08-26T06:59:25.966Z,34432.00
2022-08-26T07:00:25.953Z,32000.00
2022-08-26T07:01:26.028Z,52736.00
2022-08-26T07:02:28.586Z,66560.00
2022-08-26T07:03:26.028Z,57120.00
2022-08-26T07:04:27.798Z,40960.00
2022-08-26T07:05:25.873Z,29248.00
2022-08-26T07:06:25.900Z,24096.00
2022-08-26T07:07:25.838Z,22592.00
2022-08-26T07:08:25.839Z,22272.00
2022-08-26T07:09:25.912Z,21632.00
2022-08-26T07:10:25.829Z,21632.00
2022-08-26T07:11:25.815Z,21824.00
2022-08-26T07:12:25.769Z,24576.00
2022-08-26T07:13:30.497Z,32544.00
2022-08-26T07:14:26.811Z,40544.00
2022-08-26T07:15:27.143Z,52064.00
2022-08-26T07:16:26.843Z,54272.00
2022-08-26T07:17:25.700Z,61056.00
2022-08-26T07:18:25.695Z,59200.00
2022-08-26T07:19:30.641Z,63904.00
2022-08-26T07:20:26.705Z,67424.00
2022-08-26T07:21:25.672Z,78336.00
2022-08-26T07:22:25.628Z,73184.00
2022-08-26T07:23:25.607Z,64000.00
2022-08-26T07:24:28.537Z,61792.00
2022-08-26T07:25:25.631Z,69888.00
2022-08-26T07:26:25.604Z,81568.00
2022-08-26T07:27:25.562Z,77280.00
2022-08-26T07:28:25.532Z,59264.00
2022-08-26T07:29:25.599Z,47520.00
2022-08-26T07:30:25.507Z,42432.00
2022-08-26T07:31:25.541Z,41344.00
2022-08-26T07:32:25.493Z,49344.00
2022-08-26T07:33:25.523Z,48960.00
2022-08-26T07:34:25.471Z,51392.00
2022-08-26T07:35:25.449Z,56832.00
2022-08-26T07:36:25.481Z,57792.00
2022-08-26T07:37:25.447Z,57088.00
2022-08-26T07:38:25.399Z,57536.00
2022-08-26T07:39:25.383Z,60448.00
2022-08-26T07:40:25.384Z,73664.00
2022-08-26T07:41:25.456Z,79136.00
2022-08-26T07:42:25.341Z,83008.00
2022-08-26T07:43:25.317Z,85696.00
2022-08-26T07:44:25.368Z,88704.00
2022-08-26T07:45:25.292Z,87040.00
2022-08-26T07:46:27.466Z,89088.00
2022-08-26T07:47:26.459Z,84320.00
2022-08-26T07:48:25.256Z,81824.00
2022-08-26T07:49:25.330Z,80800.00
2022-08-26T07:50:49.174Z,81280.00
2022-08-26T07:51:26.240Z,85760.00
2022-08-26T07:52:26.942Z,87328.00
2022-08-26T07:53:26.186Z,88704.00
2022-08-26T07:54:27.065Z,91936.00
2022-08-26T07:55:25.226Z,93568.00
2022-08-26T07:56:25.178Z,90784.00
2022-08-26T07:57:25.122Z,87584.00
2022-08-26T07:58:25.196Z,87168.00
2022-08-26T07:59:25.092Z,84800.00
2022-08-26T08:00:25.084Z,88256.00
2022-08-26T08:01:25.174Z,91360.00
2022-08-26T08:02:25.047Z,89376.00
2022-08-26T08:03:25.053Z,87744.00
2022-08-26T08:04:26.610Z,82848.00
2022-08-26T08:05:27.294Z,78912.00
2022-08-26T08:06:27.376Z,77856.00
2022-08-26T08:07:38.619Z,79104.00
2022-08-26T08:08:26.942Z,82112.00
2022-08-26T08:09:25.112Z,79040.00
2022-08-26T08:10:25.191Z,72960.00
2022-08-26T08:11:24.958Z,61920.00
2022-08-26T08:12:24.987Z,63584.00
2022-08-26T08:13:24.961Z,66496.00
2022-08-26T08:14:25.088Z,67232.00
2022-08-26T08:15:24.911Z,61696.00
2022-08-26T08:16:24.941Z,61632.00
2022-08-26T08:17:24.909Z,64960.00
2022-08-26T08:18:24.843Z,63232.00
2022-08-26T08:19:36.564Z,58336.00
2022-08-26T08:20:25.892Z,55968.00
2022-08-26T08:21:24.818Z,68800.00
2022-08-26T08:22:25.845Z,77120.00
2022-08-26T08:23:24.785Z,81440.00
2022-08-26T08:24:24.875Z,82912.00
2022-08-26T08:25:24.759Z,77440.00
2022-08-26T08:26:24.773Z,67680.00
2022-08-26T08:27:24.730Z,68032.00
2022-08-26T08:28:24.756Z,60128.00
2022-08-26T08:29:24.755Z,57824.00
2022-08-26T08:30:24.688Z,60640.00
2022-08-26T08:31:52.143Z,59168.00
2022-08-26T08:32:26.752Z,61824.00
2022-08-26T08:33:24.656Z,65184.00
2022-08-26T08:34:24.678Z,65952.00
2022-08-26T08:35:24.622Z,67584.00
2022-08-26T08:36:24.725Z,72224.00
2022-08-26T08:37:24.668Z,79616.00
2022-08-26T08:38:24.587Z,83904.00
2022-08-26T08:39:24.587Z,77760.00
2022-08-26T08:40:24.605Z,80320.00
2022-08-26T08:41:24.572Z,82624.00
2022-08-26T08:42:24.576Z,71872.00
2022-08-26T08:43:24.526Z,42336.00
2022-08-26T08:45:25.506Z,71360.00
2022-08-26T08:46:24.579Z,71904.00
2022-08-26T08:47:24.544Z,65440.00
2022-08-26T08:48:27.826Z,67584.00
2022-08-26T08:49:24.445Z,64640.00
2022-08-26T08:50:24.430Z,76992.00
2022-08-26T08:51:24.463Z,64992.00
2022-08-26T08:52:24.412Z,53504.00
2022-08-26T08:53:24.437Z,48256.00
2022-08-26T08:54:24.482Z,40224.00
2022-08-26T08:55:24.392Z,35040.00
2022-08-26T08:56:24.404Z,28864.00
2022-08-26T08:57:24.342Z,31008.00
2022-08-26T08:58:24.329Z,28608.00
2022-08-26T08:59:24.325Z,29696.00
2022-08-26T09:00:30.153Z,33600.00
2022-08-26T09:01:25.371Z,32256.00
2022-08-26T09:02:24.312Z,41888.00
2022-08-26T09:03:24.265Z,54880.00
2022-08-26T09:04:24.243Z,73440.00
2022-08-26T09:05:24.220Z,78688.00
2022-08-26T09:06:24.242Z,79872.00
2022-08-26T09:07:24.205Z,81120.00
2022-08-26T09:08:24.191Z,83456.00
2022-08-26T09:09:24.169Z,87456.00
2022-08-26T09:10:24.174Z,85728.00
2022-08-26T09:11:24.237Z,84096.00
2022-08-26T09:12:29.294Z,80544.00
2022-08-26T09:13:26.219Z,78848.00
2022-08-26T09:14:24.134Z,82560.00
2022-08-26T09:15:25.475Z,80544.00
2022-08-26T09:16:25.183Z,80384.00
2022-08-26T09:17:24.069Z,81504.00
2022-08-26T09:18:24.050Z,84160.00
2022-08-26T09:19:24.049Z,85184.00
2022-08-26T09:20:24.020Z,83744.00
2022-08-26T09:21:24.022Z,85504.00
2022-08-26T09:23:25.168Z,84320.00
2022-08-26T09:24:24.024Z,85248.00
2022-08-26T09:25:23.957Z,85888.00
2022-08-26T09:26:26.001Z,82816.00
2022-08-26T09:27:24.964Z,81504.00
2022-08-26T09:28:23.978Z,82784.00
2022-08-26T09:29:24.040Z,82400.00
2022-08-26T09:30:23.996Z,80736.00
2022-08-26T09:31:23.971Z,79680.00
2022-08-26T09:32:23.907Z,78720.00
2022-08-26T09:33:23.856Z,78720.00
2022-08-26T09:34:23.895Z,80352.00
2022-08-26T09:35:23.837Z,83520.00
2022-08-26T09:36:24.736Z,85888.00
2022-08-26T09:37:24.021Z,79968.00
2022-08-26T09:38:23.785Z,76864.00
2022-08-26T09:39:23.776Z,80096.00
2022-08-26T09:40:23.830Z,81664.00
2022-08-26T09:41:23.757Z,77536.00
2022-08-26T09:42:23.807Z,73984.00
2022-08-26T09:43:23.739Z,80672.00
2022-08-26T09:44:24.320Z,82240.00
2022-08-26T09:45:23.713Z,79232.00
2022-08-26T09:46:23.783Z,80576.00
2022-08-26T09:47:23.711Z,81696.00
2022-08-26T09:48:23.692Z,81600.00
2022-08-26T09:49:23.652Z,79200.00
2022-08-26T09:50:23.645Z,74816.00
2022-08-26T09:51:24.646Z,71680.00
2022-08-26T09:52:23.739Z,77536.00
2022-08-26T09:53:25.183Z,77568.00
2022-08-26T09:54:24.625Z,76000.00
2022-08-26T09:55:24.577Z,75104.00
2022-08-26T09:56:23.600Z,69760.00
2022-08-26T09:57:23.560Z,65824.00
2022-08-26T09:58:23.558Z,70016.00
2022-08-26T09:59:23.569Z,72448.00
2022-08-26T10:00:23.517Z,66400.00
2022-08-26T10:01:23.587Z,65024.00
2022-08-26T10:02:23.481Z,70240.00
2022-08-26T10:03:23.475Z,69312.00
2022-08-26T10:04:23.572Z,68608.00
2022-08-26T10:05:23.467Z,66464.00
2022-08-26T10:06:23.492Z,66752.00
2022-08-26T10:07:23.419Z,71808.00
2022-08-26T10:08:23.422Z,74048.00
2022-08-26T10:09:23.405Z,73888.00
2022-08-26T10:10:23.397Z,69856.00
2022-08-26T10:11:23.404Z,66656.00
2022-08-26T10:12:23.490Z,69760.00
2022-08-26T10:13:23.361Z,63584.00
2022-08-26T10:14:23.350Z,54176.00
2022-08-26T10:15:23.320Z,51648.00
2022-08-26T10:16:23.390Z,50592.00
2022-08-26T10:17:23.284Z,57792.00
2022-08-26T10:18:23.293Z,68064.00
2022-08-26T10:19:23.276Z,67296.00
2022-08-26T10:20:24.101Z,69600.00
2022-08-26T10:21:23.337Z,64352.00
2022-08-26T10:22:23.235Z,66976.00
2022-08-26T10:23:23.393Z,70528.00
2022-08-26T10:24:23.241Z,69856.00
2022-08-26T10:25:23.209Z,67840.00
2022-08-26T10:26:23.234Z,64640.00
2022-08-26T10:27:23.169Z,62816.00
2022-08-26T10:28:23.189Z,60800.00
2022-08-26T10:29:23.154Z,61216.00
2022-08-26T10:30:23.153Z,64576.00
2022-08-26T10:31:23.163Z,63104.00
2022-08-26T10:32:23.216Z,63424.00
2022-08-26T10:33:23.101Z,51776.00
2022-08-26T10:34:23.139Z,54112.00
2022-08-26T10:35:23.069Z,59392.00
2022-08-26T10:36:23.094Z,63808.00
2022-08-26T10:37:23.099Z,61888.00
2022-08-26T10:38:23.027Z,56576.00
2022-08-26T10:39:23.025Z,54752.00
2022-08-26T10:40:23.053Z,49408.00
2022-08-26T10:41:23.014Z,34976.00
2022-08-26T10:42:23.050Z,44256.00
2022-08-26T10:43:23.037Z,44704.00
2022-08-26T10:44:22.995Z,36544.00
2022-08-26T10:45:22.943Z,34880.00
2022-08-26T10:46:22.967Z,32192.00
2022-08-26T10:47:22.971Z,28096.00
2022-08-26T10:48:22.939Z,22912.00
2022-08-26T10:49:22.884Z,17312.00
2022-08-26T10:50:22.852Z,16592.00
2022-08-26T10:51:22.843Z,17216.00
2022-08-26T10:52:22.869Z,17696.00
2022-08-26T10:53:24.885Z,17408.00
2022-08-26T10:54:22.887Z,16992.00
2022-08-26T10:55:22.782Z,16496.00
2022-08-26T10:56:22.777Z,15120.00
2022-08-26T10:57:22.793Z,15832.00
2022-08-26T10:58:26.061Z,15396.00
2022-08-26T10:59:22.750Z,14324.00
2022-08-26T11:00:22.727Z,13744.00
2022-08-26T11:01:23.280Z,13752.00
2022-08-26T11:02:25.043Z,15676.00
2022-08-26T11:03:23.667Z,17792.00
2022-08-26T11:04:22.881Z,19456.00
2022-08-26T11:05:22.694Z,19904.00
2022-08-26T11:06:22.636Z,18752.00
2022-08-26T11:07:22.656Z,19424.00
2022-08-26T11:08:22.600Z,19904.00
2022-08-26T11:09:22.582Z,19712.00
2022-08-26T11:10:23.592Z,19232.00
2022-08-26T11:11:22.566Z,18784.00
2022-08-26T11:12:22.569Z,18656.00
2022-08-26T11:13:22.525Z,18560.00
2022-08-26T11:14:28.734Z,18400.00
2022-08-26T11:15:24.618Z,17984.00
2022-08-26T11:16:22.570Z,17856.00
2022-08-26T11:17:22.503Z,17504.00
2022-08-26T11:18:22.463Z,16792.00
2022-08-26T11:19:22.434Z,16204.00
2022-08-26T11:20:22.435Z,15740.00
2022-08-26T11:21:22.407Z,15008.00
2022-08-26T11:22:23.441Z,14608.00
2022-08-26T11:23:22.425Z,14808.00
2022-08-26T11:24:22.401Z,16088.00
2022-08-26T11:25:25.391Z,17248.00
2022-08-26T11:26:35.751Z,17632.00
2022-08-26T11:27:23.404Z,17824.00
2022-08-26T11:28:22.293Z,17984.00
2022-08-26T11:29:22.310Z,17952.00
2022-08-26T11:30:22.304Z,17984.00
2022-08-26T11:31:22.266Z,18080.00
2022-08-26T11:32:22.266Z,18112.00
2022-08-26T11:33:22.215Z,18048.00
2022-08-26T11:34:22.226Z,17760.00
2022-08-26T11:35:22.179Z,17376.00
2022-08-26T11:36:22.189Z,17016.00
2022-08-26T11:37:22.182Z,16816.00
2022-08-26T11:38:22.147Z,16696.00
2022-08-26T11:39:22.143Z,16568.00
2022-08-26T11:40:22.129Z,16428.00
2022-08-26T11:41:22.083Z,16256.00
2022-08-26T11:42:22.120Z,16156.00
2022-08-26T11:43:22.053Z,16092.00
2022-08-26T11:44:22.058Z,15980.00
2022-08-26T11:45:22.053Z,15904.00
2022-08-26T11:46:22.008Z,15876.00
2022-08-26T11:47:22.019Z,15824.00
2022-08-26T11:48:21.972Z,15752.00
2022-08-26T11:49:22.005Z,15772.00
2022-08-26T11:50:21.938Z,15680.00
2022-08-26T11:51:21.939Z,15612.00
2022-08-26T11:52:22.011Z,15632.00
2022-08-26T11:53:21.903Z,15672.00
2022-08-26T11:54:29.272Z,15400.00
2022-08-26T11:55:23.308Z,15308.00
2022-08-26T11:56:21.870Z,15252.00
2022-08-26T11:57:21.860Z,15132.00
2022-08-26T11:58:21.843Z,15088.00
2022-08-26T11:59:21.845Z,15188.00
2022-08-26T12:00:22.697Z,15072.00
2022-08-26T12:01:21.758Z,15032.00
2022-08-26T12:02:21.813Z,15060.00
2022-08-26T12:03:21.849Z,14980.00
2022-08-26T12:04:21.811Z,14936.00
2022-08-26T12:05:21.714Z,14804.00
2022-08-26T12:06:21.713Z,14544.00
2022-08-26T12:07:23.794Z,14612.00
2022-08-26T12:08:21.717Z,14912.00
2022-08-26T12:09:21.636Z,15184.00
2022-08-26T12:10:21.663Z,15476.00
2022-08-26T12:11:21.618Z,15720.00
2022-08-26T12:12:21.638Z,15956.00
2022-08-26T12:13:21.582Z,16172.00
2022-08-26T12:14:21.593Z,16380.00
2022-08-26T12:15:21.570Z,16608.00
2022-08-26T12:16:21.665Z,16736.00
2022-08-26T12:17:22.467Z,16672.00
2022-08-26T12:18:28.912Z,16640.00